Monte Sereno, California
Current Conditions -  °F | °C
As of 8:47 PM on Saturday 25 Oct 2014 (Local Time) from KRHV Reporting Station
Scattered Clouds Scattered Clouds  
Wind Chill: 68°   Ceiling: Unl
Heat Index: 68°   Visibility: 10mi
Dew Point: 55°   Wind: 7mph
Humidity: 64%   Direction: NA
Pressure: 30.13"   Gusts: NA
Location:  37.1624°N, 121.959°W
Report Text: KRHV 260347Z VRB06KT 10SM SCT060 20/13 A3013
Loading
Personal Weather Stations






























Interactive Weather Map
Tropical Storm Tracking
New forecast layout! Learn more

10-Day Weather Forecast

Advertisements
Track Severe Weather on mobile